TTPP Airport Information

Runway Information
Runway 10 Length 10500 ft width 150 ft
Elevation 30 ft Threshold 0 ft Heading 90
Runway 28 Length 10500 ft Width 150 ft
Elevation 58 ft Threshold 0 ft Heading 270
Airport Frequencies
Type ACC Name ACC Frequency 123.7 MHZ
Type APP Name APP Frequency 119 MHZ
Type ATIS Name ATIS Frequency 126.7 MHZ
Type GND Name GND Frequency 121.9 MHZ
Type MISC Name APRON Frequency 121.75 MHZ
Type RDO Name RDO Frequency 552.6 MHZ
Type TWR Name TWR Frequency 118.1 MHZ
Airport Navaids
Type VOR-DME Name Piarco Frequency 116900 KHZ
Type NDB Name Piarco Frequency 382 KHZ
Airport Weather Information & NOTAM
ADDS - METARS form results

(0855 UTC 24 April 2018)
 
METAR text: TTPP 240800Z 00000KT 9999 FEW016 24/22 Q1013 NOSIG
Conditions at: TTPP (PIARCO INT AIRPT, TT) observed 0800 UTC 24 April 2018
Temperature: 24.0°C (75°F)
Dewpoint: 22.0°C (72°F) [RH = 89%]
Pressure (altimeter): 29.91 inches Hg (1013.0 mb)
Winds: calm
Visibility: 6 or more miles (10+ km)
Ceiling: at least 12,000 feet AGL
Clouds: few clouds at 1600 feet AGL
Weather: no significant weather observed at this time